Bookmark and Share
Track history (hours):
 

Sylvia

Last reported at 2014-Apr-19 00:28 UTC. Time now 2014-Apr-19 07:02 UTC.
Position N 57°41' E 010°05'.

Length 108 m; draft 5.5 m.

Type: Ship (hazmat cat B). MMSI: 245752000.

NotesDate/timePositionNaut miles runAvg speedWind from/ knotsBaromVisibWave heightAir tempDewpointWater temp
2014-Apr-19 00:28N 57°41' E 010°05'8 9.0
2014-Apr-18 23:33N 57°44' E 010°19'9 9.0
2014-Apr-18 22:34N 57°47' E 010°35'9 8.7
2014-Apr-18 21:33N 57°47' E 010°51'9 9.2
2014-Apr-18 20:33N 57°43' E 011°07'9 9.0
2014-Apr-18 19:34N 57°40' E 011°23'9 9.2
2014-Apr-18 18:33N 57°37' E 011°39'5 5.2
2014-Apr-18 17:31N 57°40' E 011°47'0 0.0
2014-Apr-18 16:31N 57°40' E 011°47'0 0.0
2014-Apr-18 15:31N 57°40' E 011°47'0 0.0
2014-Apr-18 14:32N 57°40' E 011°47'8 7.7
2014-Apr-18 13:33N 57°34' E 011°39'10 9.9
2014-Apr-18 12:33N 57°24' E 011°40'9 9.4
2014-Apr-18 11:33N 57°15' E 011°41'12 9.0
2014-Apr-18 10:15N 57°03' E 011°45'7 9.4
2014-Apr-18 09:33N 56°57' E 011°50'9 9.2
2014-Apr-18 08:33N 56°49' E 011°57'9 9.1
2014-Apr-18 07:33N 56°41' E 012°05'10 9.4
2014-Apr-18 06:32N 56°32' E 012°11'9 9.3
2014-Apr-18 05:33N 56°24' E 012°19'9 9.5
2014-Apr-18 04:33N 56°15' E 012°26'10 9.6
2014-Apr-18 03:33N 56°07' E 012°34'1010.4
2014-Apr-18 02:33N 55°58' E 012°43'1010.2
2014-Apr-18 01:33N 55°47' E 012°42'1010.0
2014-Apr-18 00:33N 55°37' E 012°42'10 9.8
2014-Apr-17 23:33N 55°28' E 012°42'9 9.4
2014-Apr-17 22:33N 55°18' E 012°43'10 9.7
2014-Apr-17 21:33N 55°14' E 012°58'10 9.7
2014-Apr-17 20:33N 55°10' E 013°14'10 9.7
2014-Apr-17 19:33N 55°06' E 013°29'10 9.5
2014-Apr-17 18:33N 55°03' E 013°45'1010.4
2014-Apr-17 17:33N 54°59' E 014°02'9 9.4
2014-Apr-17 16:33N 54°57' E 014°18'10 9.6
2014-Apr-17 15:33N 54°56' E 014°34'10 9.6
2014-Apr-17 14:33N 54°55' E 014°51'11 9.5
2014-Apr-17 13:25N 54°55' E 015°09'8 9.1
2014-Apr-17 12:31N 54°56' E 015°23'9 9.1
2014-Apr-17 11:33N 54°59' E 015°38'9 9.3
2014-Apr-17 10:33N 55°01' E 015°54'33 9.7
2014-Apr-17 07:11N 55°09' E 016°50'6 9.7
2014-Apr-17 06:33N 55°10' E 017°00'1010.1
2014-Apr-17 05:33N 55°12' E 017°17'9 9.2
2014-Apr-17 04:33N 55°14' E 017°33'9 9.4
2014-Apr-17 03:33N 55°17' E 017°49'9 9.4
2014-Apr-17 02:33N 55°19' E 018°05'10 9.4
2014-Apr-17 01:28N 55°22' E 018°22'9 9.6
2014-Apr-17 00:30N 55°24' E 018°38'9 9.7
2014-Apr-16 23:33N 55°26' E 018°54'10 9.6
2014-Apr-16 22:32N 55°29' E 019°11'  
2014-Apr-14 16:33N 59°34' E 023°03'1111.3
2014-Apr-14 15:34N 59°37' E 023°24'1111.4
2014-Apr-14 14:34N 59°40' E 023°46'1111.3
2014-Apr-14 13:34N 59°44' E 024°07'2010.2
2014-Apr-14 11:33N 59°39' E 024°46'8 0.4
2014-Apr-13 14:13N 59°32' E 024°57'4 6.7
2014-Apr-13 13:33N 59°36' E 024°52'1010.2
2014-Apr-13 12:33N 59°42' E 024°35'9 8.6
2014-Apr-13 11:33N 59°42' E 024°18'21 9.5
2014-Apr-13 09:22N 59°35' E 023°40'302 9.7
2014-Apr-12 02:25N 56°06' E 016°51'910.0
2014-Apr-12 01:33N 56°01' E 016°38'1010.0
2014-Apr-12 00:33N 55°56' E 016°23'34 9.9
2014-Apr-11 21:09N 55°39' E 015°31'810.0
2014-Apr-11 20:18N 55°35' E 015°18'810.1
2014-Apr-11 19:33N 55°31' E 015°06'1010.4
2014-Apr-11 18:33N 55°26' E 014°50'1010.1
2014-Apr-11 17:33N 55°21' E 014°35'1010.0
2014-Apr-11 16:33N 55°13' E 014°24'9 8.8
2014-Apr-11 15:33N 55°10' E 014°10'10 9.6
2014-Apr-11 14:33N 55°11' E 013°53'11 9.7
2014-Apr-11 13:26N 55°12' E 013°34'9 9.7
2014-Apr-11 12:33N 55°13' E 013°20'10 9.9
2014-Apr-11 11:33N 55°14' E 013°02'1010.0
2014-Apr-11 10:33N 55°17' E 012°45'8 8.0
2014-Apr-11 09:33N 55°24' E 012°40'10 9.6
2014-Apr-11 08:33N 55°33' E 012°42'9 9.5
2014-Apr-11 07:33N 55°43' E 012°41'10 9.9
2014-Apr-11 06:33N 55°53' E 012°40'10 9.9
2014-Apr-11 05:33N 56°02' E 012°38'9 9.4
2014-Apr-11 04:33N 56°10' E 012°29'10 9.9
2014-Apr-11 03:33N 56°19' E 012°20'1010.0
2014-Apr-11 02:33N 56°28' E 012°13'1010.1
2014-Apr-11 01:31N 56°37' E 012°05'1010.1
2014-Apr-11 00:33N 56°46' E 011°57'10 9.6
2014-Apr-10 23:32N 56°55' E 011°49'10 9.9
2014-Apr-10 22:29N 57°04' E 011°40'9 9.4
2014-Apr-10 21:33N 57°13' E 011°35'1010.0
2014-Apr-10 20:33N 57°22' E 011°28'10 9.7
2014-Apr-10 19:33N 57°30' E 011°18'9 9.3
2014-Apr-10 18:33N 57°36' E 011°05'10 9.5
2014-Apr-10 17:33N 57°43' E 010°52'10 9.6
2014-Apr-10 16:33N 57°47' E 010°36'1111.1
2014-Apr-10 15:33N 57°47' E 010°16'121 9.7
2014-Apr-10 03:04N 58°00' E 006°29'5 8.9
2014-Apr-10 02:29N 58°04' E 006°22'9 9.2
2014-Apr-10 01:33N 58°12' E 006°18'8 7.6
2014-Apr-10 00:33N 58°20' E 006°16'0 0.1
2014-Apr-09 23:31N 58°20' E 006°16'0 0.0
2014-Apr-09 22:31N 58°20' E 006°16'0 0.0
2014-Apr-09 21:31N 58°20' E 006°16'0 0.0
2014-Apr-09 20:31N 58°20' E 006°16'0 0.0
2014-Apr-09 19:31N 58°20' E 006°16'0 0.0
2014-Apr-09 18:31N 58°20' E 006°16'0 0.0
2014-Apr-09 17:28N 58°20' E 006°16'0 0.0
2014-Apr-09 16:28N 58°20' E 006°16'0 0.0
2014-Apr-09 15:28N 58°20' E 006°16'0 0.1
2014-Apr-09 14:17N 58°20' E 006°16'5 6.8
2014-Apr-09 13:34N 58°15' E 006°13'8 8.4
2014-Apr-09 12:33N 58°07' E 006°11'  

Dump ship's entire track history

sailing weather and tide predictions

Sylvia — PEAX — position and weather